<?xml version="1.0" encoding="UTF-8" standalone="no" ?><gpx xmlns="http://www.topografix.com/GPX/1/1" xmlns:gpxx="http://www.garmin.com/xmlschemas/GpxExtensions/v3" xmlns:gpxtrkx="http://www.garmin.com/xmlschemas/TrackStatsExtension/v1" xmlns:wptx1="http://www.garmin.com/xmlschemas/WaypointExtension/v1" xmlns:gpxtpx="http://www.garmin.com/xmlschemas/TrackPointExtension/v1" creator="Oregon 700" version="1.1" xmlns:xsi="http://www.w3.org/2001/XMLSchema-instance" xsi:schemaLocation="http://www.topografix.com/GPX/1/1 http://www.topografix.com/GPX/1/1/gpx.xsd http://www.garmin.com/xmlschemas/GpxExtensions/v3 http://www8.garmin.com/xmlschemas/GpxExtensionsv3.xsd http://www.garmin.com/xmlschemas/TrackStatsExtension/v1 http://www8.garmin.com/xmlschemas/TrackStatsExtension.xsd http://www.garmin.com/xmlschemas/WaypointExtension/v1 http://www8.garmin.com/xmlschemas/WaypointExtensionv1.xsd http://www.garmin.com/xmlschemas/TrackPointExtension/v1 http://www.garmin.com/xmlschemas/TrackPointExtensionv1.xsd"><metadata><link href="http://www.garmin.com"><text>Garmin International</text></link><time>2023-11-15T15:50:08Z</time></metadata><trk><name>Current Track: 15 NOV 2023 10:20</name><extensions><gpxx:TrackExtension><gpxx:DisplayColor>Cyan</gpxx:DisplayColor></gpxx:TrackExtension><gpxtrkx:TrackStatsExtension><gpxtrkx:Distance>3405.000</gpxtrkx:Distance><gpxtrkx:TimerTime>5780</gpxtrkx:TimerTime><gpxtrkx:TotalElapsedTime>19764</gpxtrkx:TotalElapsedTime><gpxtrkx:MovingTime>4373</gpxtrkx:MovingTime><gpxtrkx:StoppedTime>1407</gpxtrkx:StoppedTime><gpxtrkx:MovingSpeed>0.779</gpxtrkx:MovingSpeed><gpxtrkx:MaxSpeed>1.388</gpxtrkx:MaxSpeed><gpxtrkx:MaxElevation>169.780</gpxtrkx:MaxElevation><gpxtrkx:MinElevation>151.408</gpxtrkx:MinElevation><gpxtrkx:Ascent>46.000</gpxtrkx:Ascent><gpxtrkx:Descent>53.668</gpxtrkx:Descent><gpxtrkx:AvgAscentRate>0.037</gpxtrkx:AvgAscentRate><gpxtrkx:MaxAscentRate>0.093</gpxtrkx:MaxAscentRate><gpxtrkx:AvgDescentRate>0.019</gpxtrkx:AvgDescentRate><gpxtrkx:MaxDescentRate>-0.047</gpxtrkx:MaxDescentRate><gpxtrkx:Calories>128</gpxtrkx:Calories></gpxtrkx:TrackStatsExtension></extensions><trkseg><trkpt lat="51.8139164709" lon="-2.0904416218"><ele>164.77</ele><time>2023-11-15T10:20:44Z</time></trkpt><trkpt lat="51.8139189854" lon="-2.0904568769"><ele>166.09</ele><time>2023-11-15T10:20:59Z</time></trkpt><trkpt lat="51.8139062449" lon="-2.0904993732"><ele>165.41</ele><time>2023-11-15T10:21:19Z</time></trkpt><trkpt lat="51.8138851225" lon="-2.0905264467"><ele>164.35</ele><time>2023-11-15T10:21:26Z</time></trkpt><trkpt lat="51.8139126152" lon="-2.0905037317"><ele>164.75</ele><time>2023-11-15T10:21:45Z</time></trkpt><trkpt lat="51.8138529360" lon="-2.0905596390"><ele>165.43</ele><time>2023-11-15T10:21:58Z</time></trkpt><trkpt lat="51.8137389421" lon="-2.0905167237"><ele>164.00</ele><time>2023-11-15T10:22:15Z</time></trkpt><trkpt lat="51.8136314023" lon="-2.0904158056"><ele>162.13</ele><time>2023-11-15T10:22:38Z</time></trkpt><trkpt lat="51.8134745769" lon="-2.0903224312"><ele>160.74</ele><time>2023-11-15T10:22:58Z</time></trkpt><trkpt lat="51.8133074418" lon="-2.0901960321"><ele>160.10</ele><time>2023-11-15T10:23:22Z</time></trkpt><trkpt lat="51.8132803682" lon="-2.0901792683"><ele>160.04</ele><time>2023-11-15T10:23:48Z</time></trkpt><trkpt lat="51.8132557254" lon="-2.0901696291"><ele>161.19</ele><time>2023-11-15T10:24:11Z</time></trkpt><trkpt lat="51.8132660352" lon="-2.0900378656"><ele>159.66</ele><time>2023-11-15T10:24:21Z</time></trkpt><trkpt lat="51.8132712319" lon="-2.0896025095"><ele>157.75</ele><time>2023-11-15T10:25:02Z</time></trkpt><trkpt lat="51.8132586591" lon="-2.0894423313"><ele>156.81</ele><time>2023-11-15T10:25:20Z</time></trkpt><trkpt lat="51.8130838964" lon="-2.0893594343"><ele>155.44</ele><time>2023-11-15T10:25:42Z</time></trkpt><trkpt lat="51.8128982373" lon="-2.0893516392"><ele>155.39</ele><time>2023-11-15T10:26:03Z</time></trkpt><trkpt lat="51.8128303438" lon="-2.0894258190"><ele>154.76</ele><time>2023-11-15T10:26:23Z</time></trkpt><trkpt lat="51.8127822317" lon="-2.0894095581"><ele>155.03</ele><time>2023-11-15T10:26:42Z</time></trkpt><trkpt lat="51.8126560841" lon="-2.0893746894"><ele>154.62</ele><time>2023-11-15T10:27:00Z</time></trkpt><trkpt lat="51.8126477022" lon="-2.0893207099"><ele>154.49</ele><time>2023-11-15T10:27:21Z</time></trkpt><trkpt lat="51.8125213869" lon="-2.0893414970"><ele>154.60</ele><time>2023-11-15T10:27:44Z</time></trkpt><trkpt lat="51.8124355562" lon="-2.0893487893"><ele>154.16</ele><time>2023-11-15T10:28:05Z</time></trkpt><trkpt lat="51.8124129251" lon="-2.0895522181"><ele>154.16</ele><time>2023-11-15T10:28:26Z</time></trkpt><trkpt lat="51.8124389090" lon="-2.0898383763"><ele>154.16</ele><time>2023-11-15T10:28:50Z</time></trkpt><trkpt lat="51.8124385737" lon="-2.0898981392"><ele>158.49</ele><time>2023-11-15T10:28:54Z</time></trkpt><trkpt lat="51.8124388251" lon="-2.0899099577"><ele>158.50</ele><time>2023-11-15T10:28:55Z</time></trkpt><trkpt lat="51.8124337122" lon="-2.0901111234"><ele>159.20</ele><time>2023-11-15T10:29:18Z</time></trkpt><trkpt lat="51.8124109972" lon="-2.0901146438"><ele>158.63</ele><time>2023-11-15T10:29:40Z</time></trkpt><trkpt lat="51.8124181218" lon="-2.0901560504"><ele>159.48</ele><time>2023-11-15T10:29:59Z</time></trkpt><trkpt lat="51.8123081513" lon="-2.0903522708"><ele>159.91</ele><time>2023-11-15T10:30:17Z</time></trkpt><trkpt lat="51.8123157788" lon="-2.0906243473"><ele>160.82</ele><time>2023-11-15T10:30:38Z</time></trkpt><trkpt lat="51.8123389129" lon="-2.0909073204"><ele>161.12</ele><time>2023-11-15T10:30:58Z</time></trkpt><trkpt lat="51.8123284355" lon="-2.0911334641"><ele>162.16</ele><time>2023-11-15T10:31:16Z</time></trkpt><trkpt lat="51.8122892082" lon="-2.0913684927"><ele>163.01</ele><time>2023-11-15T10:31:36Z</time></trkpt><trkpt lat="51.8122912198" lon="-2.0916063711"><ele>163.66</ele><time>2023-11-15T10:31:58Z</time></trkpt><trkpt lat="51.8123008590" lon="-2.0916650444"><ele>163.98</ele><time>2023-11-15T10:32:14Z</time></trkpt><trkpt lat="51.8122795690" lon="-2.0918626059"><ele>163.47</ele><time>2023-11-15T10:32:33Z</time></trkpt><trkpt lat="51.8122345582" lon="-2.0921107940"><ele>164.20</ele><time>2023-11-15T10:32:52Z</time></trkpt><trkpt lat="51.8122077361" lon="-2.0923498459"><ele>164.64</ele><time>2023-11-15T10:33:11Z</time></trkpt><trkpt lat="51.8121752143" lon="-2.0925714634"><ele>164.91</ele><time>2023-11-15T10:33:29Z</time></trkpt><trkpt lat="51.8121598754" lon="-2.0926419552"><ele>165.27</ele><time>2023-11-15T10:33:34Z</time></trkpt><trkpt lat="51.8121238332" lon="-2.0928976033"><ele>166.03</ele><time>2023-11-15T10:33:54Z</time></trkpt><trkpt lat="51.8121002801" lon="-2.0931649860"><ele>166.27</ele><time>2023-11-15T10:34:12Z</time></trkpt><trkpt lat="51.8120851088" lon="-2.0934031159"><ele>167.30</ele><time>2023-11-15T10:34:32Z</time></trkpt><trkpt lat="51.8120659981" lon="-2.0936053712"><ele>167.95</ele><time>2023-11-15T10:34:50Z</time></trkpt><trkpt lat="51.8120302912" lon="-2.0938311797"><ele>168.83</ele><time>2023-11-15T10:35:10Z</time></trkpt><trkpt lat="51.8120275252" lon="-2.0939730853"><ele>169.52</ele><time>2023-11-15T10:35:31Z</time></trkpt><trkpt lat="51.8120112643" lon="-2.0939900167"><ele>169.30</ele><time>2023-11-15T10:35:56Z</time></trkpt><trkpt lat="51.8119580392" lon="-2.0940092951"><ele>169.89</ele><time>2023-11-15T10:36:17Z</time></trkpt><trkpt lat="51.8118995335" lon="-2.0939923637"><ele>169.32</ele><time>2023-11-15T10:36:34Z</time></trkpt><trkpt lat="51.8118810933" lon="-2.0939920284"><ele>169.32</ele><time>2023-11-15T10:36:53Z</time></trkpt><trkpt lat="51.8118617311" lon="-2.0940043498"><ele>169.32</ele><time>2023-11-15T10:37:13Z</time></trkpt><trkpt lat="51.8118659221" lon="-2.0940138213"><ele>169.32</ele><time>2023-11-15T10:37:51Z</time></trkpt><trkpt lat="51.8118316401" lon="-2.0939334389"><ele>169.29</ele><time>2023-11-15T10:38:13Z</time></trkpt><trkpt lat="51.8118063267" lon="-2.0939168427"><ele>168.95</ele><time>2023-11-15T10:38:17Z</time></trkpt><trkpt lat="51.8117740564" lon="-2.0938875061"><ele>168.73</ele><time>2023-11-15T10:38:21Z</time></trkpt><trkpt lat="51.8116455618" lon="-2.0937000029"><ele>167.53</ele><time>2023-11-15T10:38:37Z</time></trkpt><trkpt lat="51.8115163129" lon="-2.0934517309"><ele>166.69</ele><time>2023-11-15T10:38:54Z</time></trkpt><trkpt lat="51.8113778438" lon="-2.0932253357"><ele>165.59</ele><time>2023-11-15T10:39:10Z</time></trkpt><trkpt lat="51.8112669513" lon="-2.0930069033"><ele>165.55</ele><time>2023-11-15T10:39:26Z</time></trkpt><trkpt lat="51.8111978844" lon="-2.0927613135"><ele>165.03</ele><time>2023-11-15T10:39:44Z</time></trkpt><trkpt lat="51.8111280631" lon="-2.0924360957"><ele>164.07</ele><time>2023-11-15T10:40:06Z</time></trkpt><trkpt lat="51.8110922724" lon="-2.0921680424"><ele>163.78</ele><time>2023-11-15T10:40:25Z</time></trkpt><trkpt lat="51.8110154103" lon="-2.0918926131"><ele>163.15</ele><time>2023-11-15T10:40:43Z</time></trkpt><trkpt lat="51.8109849002" lon="-2.0916708279"><ele>163.11</ele><time>2023-11-15T10:41:06Z</time></trkpt><trkpt lat="51.8109285738" lon="-2.0914815646"><ele>162.79</ele><time>2023-11-15T10:41:29Z</time></trkpt><trkpt lat="51.8109124806" lon="-2.0912811533"><ele>163.08</ele><time>2023-11-15T10:41:50Z</time></trkpt><trkpt lat="51.8108754326" lon="-2.0910446160"><ele>162.71</ele><time>2023-11-15T10:42:16Z</time></trkpt><trkpt lat="51.8108222913" lon="-2.0908390079"><ele>162.71</ele><time>2023-11-15T10:42:41Z</time></trkpt><trkpt lat="51.8107753526" lon="-2.0906163007"><ele>162.71</ele><time>2023-11-15T10:43:02Z</time></trkpt><trkpt lat="51.8107222114" lon="-2.0905003790"><ele>162.71</ele><time>2023-11-15T10:43:23Z</time></trkpt><trkpt lat="51.8107352871" lon="-2.0904308930"><ele>162.71</ele><time>2023-11-15T10:43:42Z</time></trkpt><trkpt lat="51.8107853271" lon="-2.0904208347"><ele>162.71</ele><time>2023-11-15T10:44:01Z</time></trkpt><trkpt lat="51.8107597623" lon="-2.0903169829"><ele>162.71</ele><time>2023-11-15T10:44:22Z</time></trkpt><trkpt lat="51.8107766937" lon="-2.0901800226"><ele>162.71</ele><time>2023-11-15T10:44:41Z</time></trkpt><trkpt lat="51.8108116463" lon="-2.0899502747"><ele>162.71</ele><time>2023-11-15T10:45:06Z</time></trkpt><trkpt lat="51.8108661287" lon="-2.0897458401"><ele>162.71</ele><time>2023-11-15T10:45:27Z</time></trkpt><trkpt lat="51.8109002430" lon="-2.0894979872"><ele>162.71</ele><time>2023-11-15T10:45:53Z</time></trkpt><trkpt lat="51.8109231256" lon="-2.0894150063"><ele>162.71</ele><time>2023-11-15T10:46:13Z</time></trkpt><trkpt lat="51.8109897617" lon="-2.0891900361"><ele>162.71</ele><time>2023-11-15T10:46:37Z</time></trkpt><trkpt lat="51.8109429069" lon="-2.0890654810"><ele>162.71</ele><time>2023-11-15T10:46:59Z</time></trkpt><trkpt lat="51.8108807132" lon="-2.0890464541"><ele>162.71</ele><time>2023-11-15T10:47:23Z</time></trkpt><trkpt lat="51.8109578267" lon="-2.0890140161"><ele>162.71</ele><time>2023-11-15T10:47:44Z</time></trkpt><trkpt lat="51.8110023346" lon="-2.0890187938"><ele>159.55</ele><time>2023-11-15T10:48:00Z</time></trkpt><trkpt lat="51.8110027537" lon="-2.0890204702"><ele>159.55</ele><time>2023-11-15T10:48:01Z</time></trkpt><trkpt lat="51.8111262191" lon="-2.0890026167"><ele>159.03</ele><time>2023-11-15T10:48:21Z</time></trkpt><trkpt lat="51.8112047575" lon="-2.0889758784"><ele>158.87</ele><time>2023-11-15T10:48:36Z</time></trkpt><trkpt lat="51.8112731539" lon="-2.0889621321"><ele>157.87</ele><time>2023-11-15T10:48:55Z</time></trkpt><trkpt lat="51.8114103656" lon="-2.0890133455"><ele>157.50</ele><time>2023-11-15T10:49:16Z</time></trkpt><trkpt lat="51.8115304783" lon="-2.0890586078"><ele>156.97</ele><time>2023-11-15T10:49:38Z</time></trkpt><trkpt lat="51.8116131239" lon="-2.0890939794"><ele>156.46</ele><time>2023-11-15T10:50:05Z</time></trkpt><trkpt lat="51.8117897306" lon="-2.0891710091"><ele>156.13</ele><time>2023-11-15T10:50:24Z</time></trkpt><trkpt lat="51.8119492382" lon="-2.0892152656"><ele>155.86</ele><time>2023-11-15T10:50:41Z</time></trkpt><trkpt lat="51.8120542634" lon="-2.0891907904"><ele>156.22</ele><time>2023-11-15T10:51:03Z</time></trkpt><trkpt lat="51.8121614680" lon="-2.0891723502"><ele>156.08</ele><time>2023-11-15T10:51:15Z</time></trkpt><trkpt lat="51.8122586142" lon="-2.0891861804"><ele>156.08</ele><time>2023-11-15T10:51:34Z</time></trkpt><trkpt lat="51.8123130128" lon="-2.0892018545"><ele>156.08</ele><time>2023-11-15T10:51:52Z</time></trkpt><trkpt lat="51.8124141824" lon="-2.0892539900"><ele>156.08</ele><time>2023-11-15T10:52:07Z</time></trkpt><trkpt lat="51.8124419264" lon="-2.0892148465"><ele>156.08</ele><time>2023-11-15T10:52:29Z</time></trkpt><trkpt lat="51.8124819081" lon="-2.0891982503"><ele>156.08</ele><time>2023-11-15T10:52:55Z</time></trkpt><trkpt lat="51.8125321995" lon="-2.0892554149"><ele>156.08</ele><time>2023-11-15T10:53:17Z</time></trkpt><trkpt lat="51.8125964049" lon="-2.0892497152"><ele>156.08</ele><time>2023-11-15T10:53:35Z</time></trkpt><trkpt lat="51.8127854168" lon="-2.0892925467"><ele>156.08</ele><time>2023-11-15T10:53:55Z</time></trkpt><trkpt lat="51.8128448445" lon="-2.0893394016"><ele>156.08</ele><time>2023-11-15T10:54:15Z</time></trkpt><trkpt lat="51.8128464371" lon="-2.0893809758"><ele>156.08</ele><time>2023-11-15T10:54:38Z</time></trkpt><trkpt lat="51.8128756899" lon="-2.0893829875"><ele>156.08</ele><time>2023-11-15T10:54:58Z</time></trkpt><trkpt lat="51.8128730915" lon="-2.0893962309"><ele>156.08</ele><time>2023-11-15T10:55:21Z</time></trkpt><trkpt lat="51.8128342833" lon="-2.0894288365"><ele>156.08</ele><time>2023-11-15T10:55:49Z</time></trkpt><trkpt lat="51.8128489517" lon="-2.0894352905"><ele>156.08</ele><time>2023-11-15T10:56:17Z</time></trkpt><trkpt lat="51.8128345348" lon="-2.0893811435"><ele>156.08</ele><time>2023-11-15T10:56:41Z</time></trkpt><trkpt lat="51.8128634524" lon="-2.0894112345"><ele>156.08</ele><time>2023-11-15T10:57:13Z</time></trkpt><trkpt lat="51.8128831498" lon="-2.0893891901"><ele>156.08</ele><time>2023-11-15T10:57:42Z</time></trkpt><trkpt lat="51.8128691521" lon="-2.0893896092"><ele>156.08</ele><time>2023-11-15T10:58:13Z</time></trkpt><trkpt lat="51.8128977343" lon="-2.0894226339"><ele>156.08</ele><time>2023-11-15T10:58:41Z</time></trkpt><trkpt lat="51.8128836527" lon="-2.0894335303"><ele>156.08</ele><time>2023-11-15T10:59:06Z</time></trkpt><trkpt lat="51.8128558248" lon="-2.0894133300"><ele>156.08</ele><time>2023-11-15T10:59:36Z</time></trkpt><trkpt lat="51.8128347863" lon="-2.0893613622"><ele>156.08</ele><time>2023-11-15T11:00:03Z</time></trkpt><trkpt lat="51.8128159270" lon="-2.0893325284"><ele>156.08</ele><time>2023-11-15T11:00:23Z</time></trkpt><trkpt lat="51.8128278293" lon="-2.0893473644"><ele>156.08</ele><time>2023-11-15T11:00:48Z</time></trkpt><trkpt lat="51.8128599320" lon="-2.0893676486"><ele>156.08</ele><time>2023-11-15T11:01:09Z</time></trkpt><trkpt lat="51.8128820602" lon="-2.0893787127"><ele>156.08</ele><time>2023-11-15T11:01:33Z</time></trkpt><trkpt lat="51.8128643744" lon="-2.0893871784"><ele>156.08</ele><time>2023-11-15T11:01:56Z</time></trkpt><trkpt lat="51.8128509633" lon="-2.0893773716"><ele>156.08</ele><time>2023-11-15T11:02:21Z</time></trkpt><trkpt lat="51.8128581718" lon="-2.0894079655"><ele>156.08</ele><time>2023-11-15T11:02:46Z</time></trkpt><trkpt lat="51.8128499575" lon="-2.0893946383"><ele>156.08</ele><time>2023-11-15T11:03:11Z</time></trkpt><trkpt lat="51.8128560763" lon="-2.0894070435"><ele>156.08</ele><time>2023-11-15T11:03:36Z</time></trkpt><trkpt lat="51.8128388934" lon="-2.0893606916"><ele>156.08</ele><time>2023-11-15T11:04:04Z</time></trkpt><trkpt lat="51.8128471915" lon="-2.0893512201"><ele>156.08</ele><time>2023-11-15T11:04:29Z</time></trkpt><trkpt lat="51.8128538132" lon="-2.0893711690"><ele>156.08</ele><time>2023-11-15T11:04:56Z</time></trkpt><trkpt lat="51.8128292542" lon="-2.0894127432"><ele>156.08</ele><time>2023-11-15T11:05:16Z</time></trkpt><trkpt lat="51.8128328584" lon="-2.0894165151"><ele>156.08</ele><time>2023-11-15T11:05:35Z</time></trkpt><trkpt lat="51.8128290866" lon="-2.0894032717"><ele>156.08</ele><time>2023-11-15T11:05:57Z</time></trkpt><trkpt lat="51.8128528912" lon="-2.0894290041"><ele>156.08</ele><time>2023-11-15T11:06:24Z</time></trkpt><trkpt lat="51.8128367979" lon="-2.0893899444"><ele>156.08</ele><time>2023-11-15T11:06:52Z</time></trkpt><trkpt lat="51.8128378876" lon="-2.0893969852"><ele>156.08</ele><time>2023-11-15T11:07:23Z</time></trkpt><trkpt lat="51.8128065392" lon="-2.0893825684"><ele>156.08</ele><time>2023-11-15T11:07:47Z</time></trkpt><trkpt lat="51.8128077965" lon="-2.0893776231"><ele>156.08</ele><time>2023-11-15T11:08:12Z</time></trkpt><trkpt lat="51.8127865903" lon="-2.0893661398"><ele>156.08</ele><time>2023-11-15T11:08:40Z</time></trkpt><trkpt lat="51.8128153402" lon="-2.0893754438"><ele>156.08</ele><time>2023-11-15T11:09:03Z</time></trkpt><trkpt lat="51.8128177710" lon="-2.0893808920"><ele>156.08</ele><time>2023-11-15T11:09:26Z</time></trkpt><trkpt lat="51.8128284160" lon="-2.0893784612"><ele>156.08</ele><time>2023-11-15T11:09:51Z</time></trkpt><trkpt lat="51.8128523044" lon="-2.0893963985"><ele>156.08</ele><time>2023-11-15T11:10:16Z</time></trkpt><trkpt lat="51.8128273264" lon="-2.0893963147"><ele>156.08</ele><time>2023-11-15T11:10:43Z</time></trkpt><trkpt lat="51.8128440063" lon="-2.0893877652"><ele>156.08</ele><time>2023-11-15T11:11:08Z</time></trkpt><trkpt lat="51.8128428329" lon="-2.0893710013"><ele>156.08</ele><time>2023-11-15T11:11:33Z</time></trkpt><trkpt lat="51.8128438387" lon="-2.0893824846"><ele>156.08</ele><time>2023-11-15T11:11:58Z</time></trkpt><trkpt lat="51.8128283322" lon="-2.0894230530"><ele>156.08</ele><time>2023-11-15T11:12:26Z</time></trkpt><trkpt lat="51.8128489517" lon="-2.0893829037"><ele>156.08</ele><time>2023-11-15T11:12:53Z</time></trkpt><trkpt lat="51.8128801323" lon="-2.0893777907"><ele>156.08</ele><time>2023-11-15T11:13:17Z</time></trkpt><trkpt lat="51.8128620274" lon="-2.0893984940"><ele>156.08</ele><time>2023-11-15T11:13:38Z</time></trkpt><trkpt lat="51.8128507957" lon="-2.0893927105"><ele>156.08</ele><time>2023-11-15T11:14:02Z</time></trkpt><trkpt lat="51.8128604349" lon="-2.0893905312"><ele>156.08</ele><time>2023-11-15T11:14:24Z</time></trkpt><trkpt lat="51.8128546514" lon="-2.0893813111"><ele>156.08</ele><time>2023-11-15T11:15:01Z</time></trkpt><trkpt lat="51.8128548190" lon="-2.0893839095"><ele>156.08</ele><time>2023-11-15T11:15:28Z</time></trkpt><trkpt lat="51.8129639514" lon="-2.0892740227"><ele>153.72</ele><time>2023-11-15T11:15:46Z</time></trkpt><trkpt lat="51.8131671287" lon="-2.0891728532"><ele>154.14</ele><time>2023-11-15T11:16:09Z</time></trkpt><trkpt lat="51.8133112974" lon="-2.0889552590"><ele>156.56</ele><time>2023-11-15T11:16:32Z</time></trkpt><trkpt lat="51.8134194240" lon="-2.0888070669"><ele>157.32</ele><time>2023-11-15T11:16:53Z</time></trkpt><trkpt lat="51.8134770077" lon="-2.0886845235"><ele>157.40</ele><time>2023-11-15T11:17:14Z</time></trkpt><trkpt lat="51.8135985453" lon="-2.0885121915"><ele>158.01</ele><time>2023-11-15T11:17:34Z</time></trkpt><trkpt lat="51.8136735633" lon="-2.0884538535"><ele>158.94</ele><time>2023-11-15T11:17:53Z</time></trkpt><trkpt lat="51.8136755750" lon="-2.0884365030"><ele>158.80</ele><time>2023-11-15T11:18:17Z</time></trkpt><trkpt lat="51.8137266207" lon="-2.0883499179"><ele>159.08</ele><time>2023-11-15T11:18:41Z</time></trkpt><trkpt lat="51.8137582205" lon="-2.0882987883"><ele>156.96</ele><time>2023-11-15T11:18:45Z</time></trkpt><trkpt lat="51.8138577137" lon="-2.0880838763"><ele>159.66</ele><time>2023-11-15T11:18:59Z</time></trkpt><trkpt lat="51.8139195722" lon="-2.0879176632"><ele>159.76</ele><time>2023-11-15T11:19:11Z</time></trkpt><trkpt lat="51.8139303010" lon="-2.0878379513"><ele>160.02</ele><time>2023-11-15T11:19:16Z</time></trkpt><trkpt lat="51.8139370065" lon="-2.0877465047"><ele>159.83</ele><time>2023-11-15T11:19:32Z</time></trkpt><trkpt lat="51.8139653374" lon="-2.0874331892"><ele>160.38</ele><time>2023-11-15T11:19:51Z</time></trkpt><trkpt lat="51.8139935005" lon="-2.0871324465"><ele>159.98</ele><time>2023-11-15T11:20:09Z</time></trkpt><trkpt lat="51.8140185624" lon="-2.0868497249"><ele>159.53</ele><time>2023-11-15T11:20:28Z</time></trkpt><trkpt lat="51.8140225019" lon="-2.0866902173"><ele>159.90</ele><time>2023-11-15T11:20:49Z</time></trkpt><trkpt lat="51.8140063249" lon="-2.0866096672"><ele>159.65</ele><time>2023-11-15T11:21:13Z</time></trkpt><trkpt lat="51.8140136171" lon="-2.0865931548"><ele>161.21</ele><time>2023-11-15T11:21:19Z</time></trkpt><trkpt lat="51.8140355777" lon="-2.0865664165"><ele>158.13</ele><time>2023-11-15T11:21:36Z</time></trkpt><trkpt lat="51.8140439596" lon="-2.0865681767"><ele>157.39</ele><time>2023-11-15T11:21:38Z</time></trkpt><trkpt lat="51.8140262738" lon="-2.0865260996"><ele>160.98</ele><time>2023-11-15T11:22:05Z</time></trkpt><trkpt lat="51.8139923271" lon="-2.0863914862"><ele>160.12</ele><time>2023-11-15T11:22:25Z</time></trkpt><trkpt lat="51.8139636610" lon="-2.0862808451"><ele>160.45</ele><time>2023-11-15T11:22:40Z</time></trkpt><trkpt lat="51.8139432091" lon="-2.0861427952"><ele>160.64</ele><time>2023-11-15T11:22:57Z</time></trkpt><trkpt lat="51.8139746413" lon="-2.0858048368"><ele>160.48</ele><time>2023-11-15T11:23:20Z</time></trkpt><trkpt lat="51.8139691930" lon="-2.0856704749"><ele>160.45</ele><time>2023-11-15T11:23:38Z</time></trkpt><trkpt lat="51.8139889743" lon="-2.0856719837"><ele>160.29</ele><time>2023-11-15T11:24:05Z</time></trkpt><trkpt lat="51.8139919918" lon="-2.0855346043"><ele>159.85</ele><time>2023-11-15T11:24:27Z</time></trkpt><trkpt lat="51.8140224181" lon="-2.0855151583"><ele>160.13</ele><time>2023-11-15T11:24:51Z</time></trkpt><trkpt lat="51.8139339890" lon="-2.0855783578"><ele>158.71</ele><time>2023-11-15T11:37:55Z</time></trkpt><trkpt lat="51.8138139602" lon="-2.0855095424"><ele>155.94</ele><time>2023-11-15T11:38:14Z</time></trkpt><trkpt lat="51.8137915805" lon="-2.0854890067"><ele>156.27</ele><time>2023-11-15T11:38:38Z</time></trkpt><trkpt lat="51.8137838691" lon="-2.0854673814"><ele>155.65</ele><time>2023-11-15T11:39:01Z</time></trkpt><trkpt lat="51.8137756549" lon="-2.0854678843"><ele>155.91</ele><time>2023-11-15T11:39:23Z</time></trkpt><trkpt lat="51.8137764093" lon="-2.0854565687"><ele>155.91</ele><time>2023-11-15T11:39:46Z</time></trkpt><trkpt lat="51.8137541972" lon="-2.0854236279"><ele>155.91</ele><time>2023-11-15T11:40:08Z</time></trkpt><trkpt lat="51.8137220945" lon="-2.0854340214"><ele>159.22</ele><time>2023-11-15T11:40:15Z</time></trkpt><trkpt lat="51.8137199990" lon="-2.0854339376"><ele>158.81</ele><time>2023-11-15T11:40:16Z</time></trkpt><trkpt lat="51.8137183227" lon="-2.0854470972"><ele>155.86</ele><time>2023-11-15T11:40:42Z</time></trkpt><trkpt lat="51.8137727212" lon="-2.0853723306"><ele>156.14</ele><time>2023-11-15T11:41:09Z</time></trkpt><trkpt lat="51.8137701228" lon="-2.0853950456"><ele>155.46</ele><time>2023-11-15T11:41:34Z</time></trkpt><trkpt lat="51.8137780018" lon="-2.0854972210"><ele>155.81</ele><time>2023-11-15T11:42:03Z</time></trkpt><trkpt lat="51.8138236832" lon="-2.0855261385"><ele>156.00</ele><time>2023-11-15T11:42:28Z</time></trkpt><trkpt lat="51.8138582166" lon="-2.0856111310"><ele>156.26</ele><time>2023-11-15T11:42:51Z</time></trkpt><trkpt lat="51.8138225097" lon="-2.0857186709"><ele>157.57</ele><time>2023-11-15T11:43:15Z</time></trkpt><trkpt lat="51.8137741461" lon="-2.0857350994"><ele>156.29</ele><time>2023-11-15T11:43:43Z</time></trkpt><trkpt lat="51.8137727212" lon="-2.0857348479"><ele>159.16</ele><time>2023-11-15T11:43:48Z</time></trkpt><trkpt lat="51.8138307240" lon="-2.0857483428"><ele>157.36</ele><time>2023-11-15T11:44:17Z</time></trkpt><trkpt lat="51.8138277903" lon="-2.0857572276"><ele>157.94</ele><time>2023-11-15T11:44:45Z</time></trkpt><trkpt lat="51.8138360884" lon="-2.0857588202"><ele>157.25</ele><time>2023-11-15T11:45:08Z</time></trkpt><trkpt lat="51.8139275350" lon="-2.0857651066"><ele>158.01</ele><time>2023-11-15T11:45:31Z</time></trkpt><trkpt lat="51.8139203265" lon="-2.0857641846"><ele>154.52</ele><time>2023-11-15T11:45:39Z</time></trkpt><trkpt lat="51.8139233440" lon="-2.0857650228"><ele>154.28</ele><time>2023-11-15T11:45:40Z</time></trkpt><trkpt lat="51.8139279541" lon="-2.0857646037"><ele>158.52</ele><time>2023-11-15T11:45:42Z</time></trkpt><trkpt lat="51.8139319774" lon="-2.0857817866"><ele>158.22</ele><time>2023-11-15T11:45:53Z</time></trkpt><trkpt lat="51.8139878009" lon="-2.0857795235"><ele>157.92</ele><time>2023-11-15T11:46:15Z</time></trkpt><trkpt lat="51.8139910698" lon="-2.0858796872"><ele>158.03</ele><time>2023-11-15T11:46:37Z</time></trkpt><trkpt lat="51.8140073307" lon="-2.0859547053"><ele>158.03</ele><time>2023-11-15T11:46:52Z</time></trkpt><trkpt lat="51.8140311353" lon="-2.0861272048"><ele>158.03</ele><time>2023-11-15T11:47:17Z</time></trkpt><trkpt lat="51.8140264414" lon="-2.0863919891"><ele>156.10</ele><time>2023-11-15T11:47:55Z</time></trkpt><trkpt lat="51.8140394334" lon="-2.0867105853"><ele>156.01</ele><time>2023-11-15T11:48:23Z</time></trkpt><trkpt lat="51.8139663432" lon="-2.0869463682"><ele>156.78</ele><time>2023-11-15T11:48:45Z</time></trkpt><trkpt lat="51.8139761500" lon="-2.0871439297"><ele>156.78</ele><time>2023-11-15T11:49:10Z</time></trkpt><trkpt lat="51.8139508367" lon="-2.0874214545"><ele>156.78</ele><time>2023-11-15T11:49:35Z</time></trkpt><trkpt lat="51.8139536027" lon="-2.0877092052"><ele>156.78</ele><time>2023-11-15T11:50:00Z</time></trkpt><trkpt lat="51.8139084242" lon="-2.0879658591"><ele>156.78</ele><time>2023-11-15T11:50:24Z</time></trkpt><trkpt lat="51.8138483260" lon="-2.0881481655"><ele>156.78</ele><time>2023-11-15T11:50:46Z</time></trkpt><trkpt lat="51.8137168139" lon="-2.0884153806"><ele>156.78</ele><time>2023-11-15T11:51:10Z</time></trkpt><trkpt lat="51.8135806918" lon="-2.0885971840"><ele>156.78</ele><time>2023-11-15T11:51:36Z</time></trkpt><trkpt lat="51.8135224376" lon="-2.0887358207"><ele>156.78</ele><time>2023-11-15T11:51:51Z</time></trkpt><trkpt lat="51.8134117965" lon="-2.0888951607"><ele>156.78</ele><time>2023-11-15T11:52:13Z</time></trkpt><trkpt lat="51.8133325037" lon="-2.0889679156"><ele>151.02</ele><time>2023-11-15T11:52:34Z</time></trkpt><trkpt lat="51.8133331742" lon="-2.0889695920"><ele>151.40</ele><time>2023-11-15T11:52:35Z</time></trkpt><trkpt lat="51.8132714834" lon="-2.0892707538"><ele>151.62</ele><time>2023-11-15T11:53:00Z</time></trkpt><trkpt lat="51.8132989760" lon="-2.0893256553"><ele>151.44</ele><time>2023-11-15T11:53:22Z</time></trkpt><trkpt lat="51.8132822122" lon="-2.0893185306"><ele>151.94</ele><time>2023-11-15T11:53:59Z</time></trkpt><trkpt lat="51.8132566474" lon="-2.0893505495"><ele>152.37</ele><time>2023-11-15T11:54:23Z</time></trkpt><trkpt lat="51.8132677954" lon="-2.0894342009"><ele>150.97</ele><time>2023-11-15T11:54:52Z</time></trkpt><trkpt lat="51.8132786918" lon="-2.0895035192"><ele>152.97</ele><time>2023-11-15T11:55:00Z</time></trkpt><trkpt lat="51.8132849783" lon="-2.0898008253"><ele>152.39</ele><time>2023-11-15T11:55:14Z</time></trkpt><trkpt lat="51.8132706452" lon="-2.0899265539"><ele>152.77</ele><time>2023-11-15T11:55:19Z</time></trkpt><trkpt lat="51.8132994790" lon="-2.0900356863"><ele>153.19</ele><time>2023-11-15T11:55:25Z</time></trkpt><trkpt lat="51.8133727368" lon="-2.0900960360"><ele>153.73</ele><time>2023-11-15T11:55:33Z</time></trkpt><trkpt lat="51.8134852219" lon="-2.0902627520"><ele>154.28</ele><time>2023-11-15T11:55:47Z</time></trkpt><trkpt lat="51.8136496749" lon="-2.0904264506"><ele>156.47</ele><time>2023-11-15T11:56:05Z</time></trkpt><trkpt lat="51.8137942627" lon="-2.0905375108"><ele>157.70</ele><time>2023-11-15T11:56:20Z</time></trkpt><trkpt lat="51.8138969410" lon="-2.0904392749"><ele>159.14</ele><time>2023-11-15T11:56:39Z</time></trkpt><trkpt lat="51.8139038142" lon="-2.0904038195"><ele>158.78</ele><time>2023-11-15T11:56:47Z</time></trkpt><trkpt lat="51.8139227573" lon="-2.0903988741"><ele>160.41</ele><time>2023-11-15T11:56:56Z</time></trkpt><trkpt lat="51.8139098492" lon="-2.0904259477"><ele>159.46</ele><time>2023-11-15T11:57:05Z</time></trkpt></trkseg></trk></gpx>